createdAt,value
2019-03-16T00:01:58.563Z,2.60
2019-03-16T00:04:26.337Z,2.50
2019-03-16T00:06:54.118Z,2.60
2019-03-16T00:09:21.948Z,2.60
2019-03-16T00:11:49.920Z,2.60
2019-03-16T00:14:17.880Z,2.60
2019-03-16T00:16:45.700Z,2.60
2019-03-16T00:19:13.500Z,2.50
2019-03-16T00:21:41.333Z,2.50
2019-03-16T00:24:09.143Z,2.50
2019-03-16T00:26:36.988Z,2.50
2019-03-16T00:29:04.845Z,2.50
2019-03-16T00:31:32.632Z,2.50
2019-03-16T00:34:00.500Z,2.50
2019-03-16T00:36:28.279Z,2.60
2019-03-16T00:38:56.080Z,2.60
2019-03-16T00:41:23.892Z,2.50
2019-03-16T00:43:51.684Z,2.50
2019-03-16T00:46:19.565Z,2.50
2019-03-16T00:48:47.537Z,2.50
2019-03-16T00:51:15.421Z,2.40
2019-03-16T00:53:43.290Z,2.40
2019-03-16T00:56:11.075Z,2.40
2019-03-16T00:58:38.864Z,2.40
2019-03-16T01:01:06.750Z,2.40
2019-03-16T01:03:34.527Z,2.40
2019-03-16T01:06:02.326Z,2.40
2019-03-16T01:08:30.156Z,2.40
2019-03-16T01:10:57.972Z,2.40
2019-03-16T01:13:25.869Z,2.50
2019-03-16T01:15:53.641Z,2.50
2019-03-16T01:18:21.440Z,2.50
2019-03-16T01:20:49.324Z,2.50
2019-03-16T01:23:17.743Z,2.60
2019-03-16T01:25:45.876Z,2.50
2019-03-16T01:28:13.746Z,2.50
2019-03-16T01:30:41.562Z,2.60
2019-03-16T01:33:09.347Z,2.70
2019-03-16T01:35:37.149Z,2.70
2019-03-16T01:38:04.947Z,2.70
2019-03-16T01:40:32.805Z,2.70
2019-03-16T01:43:00.618Z,2.70
2019-03-16T01:45:28.407Z,2.70
2019-03-16T01:47:56.302Z,2.80
2019-03-16T01:50:24.092Z,2.90
2019-03-16T01:52:51.890Z,3.00
2019-03-16T01:55:19.686Z,3.00
2019-03-16T01:57:47.529Z,3.10
2019-03-16T02:00:15.574Z,3.00
2019-03-16T02:02:54.531Z,2.90
2019-03-16T02:05:13.097Z,2.90
2019-03-16T02:07:40.911Z,2.80
2019-03-16T02:10:09.085Z,2.80
2019-03-16T02:12:36.921Z,2.80
2019-03-16T02:15:04.884Z,2.80
2019-03-16T02:17:32.746Z,2.80
2019-03-16T02:20:00.569Z,2.80
2019-03-16T02:22:28.397Z,2.90
2019-03-16T02:24:56.238Z,2.90
2019-03-16T02:27:24.006Z,2.90
2019-03-16T02:29:51.846Z,2.90
2019-03-16T02:32:19.661Z,2.90
2019-03-16T02:34:47.448Z,2.80
2019-03-16T02:37:15.329Z,2.70
2019-03-16T02:39:43.126Z,2.60
2019-03-16T02:42:10.943Z,2.50
2019-03-16T02:44:38.769Z,2.50
2019-03-16T02:47:06.588Z,2.60
2019-03-16T02:49:34.391Z,2.60
2019-03-16T02:52:02.211Z,2.60
2019-03-16T02:54:30.021Z,2.50
2019-03-16T02:56:57.985Z,2.50
2019-03-16T02:59:25.882Z,2.50
2019-03-16T03:01:53.711Z,2.50
2019-03-16T03:04:21.507Z,2.50
2019-03-16T03:06:49.361Z,2.50
2019-03-16T03:09:17.155Z,1.40
2019-03-16T03:11:44.928Z,2.50
2019-03-16T03:14:12.824Z,2.50
2019-03-16T03:16:40.934Z,2.50
2019-03-16T03:19:08.729Z,2.50
2019-03-16T03:21:36.569Z,2.50
2019-03-16T03:24:04.372Z,2.50
2019-03-16T03:26:32.227Z,2.50
2019-03-16T03:29:00.002Z,2.50
2019-03-16T03:31:27.784Z,2.50
2019-03-16T03:34:01.076Z,2.50
2019-03-16T03:36:25.332Z,2.40
2019-03-16T03:38:53.115Z,2.40
2019-03-16T03:41:21.065Z,2.40
2019-03-16T03:43:48.859Z,2.40
2019-03-16T03:46:16.647Z,2.40
2019-03-16T03:48:44.475Z,2.40
2019-03-16T03:51:12.277Z,2.40
2019-03-16T03:53:41.396Z,2.30
2019-03-16T03:56:09.411Z,2.20
2019-03-16T03:58:37.226Z,2.20
2019-03-16T04:01:05.094Z,2.20
2019-03-16T04:03:32.885Z,2.20
2019-03-16T04:06:00.674Z,2.20
2019-03-16T04:08:28.529Z,2.20
2019-03-16T04:10:56.323Z,2.20
2019-03-16T04:13:24.179Z,2.20
2019-03-16T04:15:52.005Z,2.20
2019-03-16T04:18:19.814Z,2.20
2019-03-16T04:20:47.657Z,2.20
2019-03-16T04:23:15.461Z,2.20
2019-03-16T04:25:43.261Z,2.20
2019-03-16T04:28:11.155Z,2.20
2019-03-16T04:30:38.931Z,2.30
2019-03-16T04:33:06.729Z,2.30
2019-03-16T04:35:34.578Z,2.30
2019-03-16T04:38:02.367Z,2.40
2019-03-16T04:40:30.167Z,2.40
2019-03-16T04:42:58.005Z,2.30
2019-03-16T04:45:25.801Z,2.30
2019-03-16T04:47:53.650Z,2.30
2019-03-16T04:50:21.439Z,2.30
2019-03-16T04:52:51.087Z,2.30
2019-03-16T04:55:18.900Z,2.30
2019-03-16T04:57:46.711Z,2.30
2019-03-16T05:00:14.655Z,2.30
2019-03-16T05:02:42.473Z,2.30
2019-03-16T05:05:10.465Z,2.30
2019-03-16T05:07:38.263Z,2.20
2019-03-16T05:10:07.363Z,2.20
2019-03-16T05:12:35.400Z,2.20
2019-03-16T05:15:03.438Z,2.20
2019-03-16T05:17:31.260Z,2.20
2019-03-16T05:19:59.136Z,2.30
2019-03-16T05:22:27.023Z,2.30
2019-03-16T05:24:54.814Z,2.30
2019-03-16T05:27:22.703Z,2.30
2019-03-16T05:29:50.487Z,2.30
2019-03-16T05:32:18.309Z,2.20
2019-03-16T05:34:55.877Z,2.20
2019-03-16T05:37:15.766Z,2.10
2019-03-16T05:39:43.560Z,2.30
2019-03-16T05:42:11.400Z,2.30
2019-03-16T05:44:39.189Z,2.30
2019-03-16T05:47:07.018Z,2.30
2019-03-16T05:49:34.886Z,2.30
2019-03-16T05:52:02.742Z,2.20
2019-03-16T05:54:30.520Z,2.20
2019-03-16T05:56:58.399Z,2.20
2019-03-16T05:59:26.205Z,2.20
2019-03-16T06:01:54.036Z,2.20
2019-03-16T06:04:21.881Z,2.30
2019-03-16T06:06:49.743Z,2.30
2019-03-16T06:09:17.527Z,2.20
2019-03-16T06:11:45.395Z,2.20
2019-03-16T06:14:13.205Z,2.10
2019-03-16T06:16:41.037Z,2.10
2019-03-16T06:19:08.917Z,2.10
2019-03-16T06:21:36.747Z,2.20
2019-03-16T06:24:04.612Z,2.20
2019-03-16T06:26:32.455Z,2.20
2019-03-16T06:29:00.279Z,2.10
2019-03-16T06:31:28.117Z,2.10
2019-03-16T06:33:55.889Z,2.10
2019-03-16T06:36:23.670Z,2.10
2019-03-16T06:38:51.564Z,2.10
2019-03-16T06:41:19.353Z,2.10
2019-03-16T06:43:47.173Z,2.00
2019-03-16T06:46:15.078Z,2.00
2019-03-16T06:48:42.861Z,2.00
2019-03-16T06:51:10.649Z,2.00
2019-03-16T06:53:38.510Z,1.90
2019-03-16T06:56:06.310Z,2.00
2019-03-16T06:58:34.115Z,0.70
2019-03-16T07:01:01.986Z,1.80
2019-03-16T07:03:29.788Z,1.90
2019-03-16T07:05:57.582Z,1.90
2019-03-16T07:08:25.443Z,1.90
2019-03-16T07:10:53.241Z,2.00
2019-03-16T07:13:21.005Z,2.20
2019-03-16T07:15:49.060Z,2.20
2019-03-16T07:18:16.897Z,2.30
2019-03-16T07:20:44.699Z,2.30
2019-03-16T07:23:12.534Z,2.30
2019-03-16T07:25:40.350Z,2.20
2019-03-16T07:28:08.141Z,2.20
2019-03-16T07:30:37.300Z,2.20
2019-03-16T07:33:05.269Z,2.30
2019-03-16T07:35:33.065Z,2.30
2019-03-16T07:38:00.938Z,2.30
2019-03-16T07:40:28.738Z,2.30
2019-03-16T07:42:56.537Z,2.20
2019-03-16T07:45:24.416Z,2.20
2019-03-16T07:47:52.223Z,2.20
2019-03-16T07:50:19.998Z,2.00
2019-03-16T07:52:47.814Z,2.10
2019-03-16T07:55:16.345Z,2.10
2019-03-16T07:57:44.188Z,2.10
2019-03-16T08:00:12.176Z,2.10
2019-03-16T08:02:39.983Z,2.20
2019-03-16T08:05:18.227Z,2.20
2019-03-16T08:07:37.864Z,2.10
2019-03-16T08:10:06.093Z,2.10
2019-03-16T08:12:33.935Z,2.10
2019-03-16T08:15:01.729Z,2.00
2019-03-16T08:17:29.521Z,2.00
2019-03-16T08:19:57.414Z,1.90
2019-03-16T08:22:25.235Z,1.90
2019-03-16T08:24:53.015Z,1.90
2019-03-16T08:27:20.884Z,1.90
2019-03-16T08:29:48.677Z,1.90
2019-03-16T08:32:16.459Z,2.00
2019-03-16T08:34:44.304Z,2.00
2019-03-16T08:37:12.110Z,2.00
2019-03-16T08:39:39.966Z,2.00
2019-03-16T08:42:07.741Z,2.00
2019-03-16T08:44:35.562Z,2.10
2019-03-16T08:47:03.399Z,2.10
2019-03-16T08:49:31.167Z,2.20
2019-03-16T08:51:59.026Z,2.10
2019-03-16T08:54:26.825Z,2.20
2019-03-16T08:56:54.649Z,2.20
2019-03-16T08:59:24.469Z,2.20
2019-03-16T09:01:52.126Z,2.30
2019-03-16T09:04:19.915Z,2.50
2019-03-16T09:06:47.722Z,2.60
2019-03-16T09:09:15.508Z,2.60
2019-03-16T09:11:43.381Z,2.70
2019-03-16T09:14:11.194Z,2.80
2019-03-16T09:16:39.017Z,2.90
2019-03-16T09:19:06.868Z,3.10
2019-03-16T09:21:34.753Z,3.10
2019-03-16T09:24:02.604Z,3.10
2019-03-16T09:26:30.403Z,3.20
2019-03-16T09:29:00.319Z,3.20
2019-03-16T09:31:27.800Z,3.20
2019-03-16T09:33:55.626Z,3.20
2019-03-16T09:36:23.492Z,3.20
2019-03-16T09:38:51.345Z,3.10
2019-03-16T09:41:19.140Z,3.20
2019-03-16T09:43:46.970Z,3.10
2019-03-16T09:46:14.745Z,3.20
2019-03-16T09:48:42.591Z,3.30
2019-03-16T09:51:10.418Z,3.40
2019-03-16T09:53:38.300Z,3.50
2019-03-16T09:56:06.045Z,3.80
2019-03-16T09:58:33.869Z,3.80
2019-03-16T10:01:01.756Z,3.80
2019-03-16T10:03:29.569Z,3.80
2019-03-16T10:05:57.374Z,3.80
2019-03-16T10:08:25.202Z,3.80
2019-03-16T10:10:53.043Z,3.70
2019-03-16T10:13:20.848Z,3.80
2019-03-16T10:15:48.663Z,3.80
2019-03-16T10:18:16.483Z,3.50
2019-03-16T10:20:44.265Z,3.50
2019-03-16T10:23:12.307Z,3.40
2019-03-16T10:25:40.110Z,3.60
2019-03-16T10:28:07.992Z,3.50
2019-03-16T10:30:35.868Z,3.60
2019-03-16T10:33:03.669Z,3.50
2019-03-16T10:35:31.543Z,3.30
2019-03-16T10:37:59.341Z,3.40
2019-03-16T10:40:27.152Z,3.40
2019-03-16T10:42:58.457Z,3.30
2019-03-16T10:45:26.219Z,3.40
2019-03-16T10:47:54.122Z,3.40
2019-03-16T10:50:21.924Z,3.50
2019-03-16T10:52:49.729Z,3.50
2019-03-16T10:55:17.546Z,3.50
2019-03-16T10:57:45.818Z,3.60
2019-03-16T11:00:13.744Z,3.70
2019-03-16T11:02:42.748Z,3.70
2019-03-16T11:05:10.674Z,3.70
2019-03-16T11:07:38.448Z,3.50
2019-03-16T11:10:06.486Z,3.50
2019-03-16T11:12:36.330Z,3.50
2019-03-16T11:15:04.374Z,3.50
2019-03-16T11:17:32.261Z,3.40
2019-03-16T11:20:00.065Z,3.30
2019-03-16T11:22:27.846Z,3.30
2019-03-16T11:24:55.757Z,3.50
2019-03-16T11:27:23.556Z,3.50
2019-03-16T11:29:51.341Z,3.50
2019-03-16T11:32:19.206Z,3.50
2019-03-16T11:34:47.013Z,3.40
2019-03-16T11:37:14.835Z,3.50
2019-03-16T11:39:42.672Z,3.60
2019-03-16T11:42:10.478Z,3.60
2019-03-16T11:44:38.300Z,3.70
2019-03-16T11:47:06.097Z,3.50
2019-03-16T11:49:33.914Z,3.40
2019-03-16T11:52:01.768Z,3.50
2019-03-16T11:54:29.569Z,3.70
2019-03-16T11:56:57.370Z,3.90
2019-03-16T11:59:25.230Z,3.90
2019-03-16T12:02:04.628Z,3.80
2019-03-16T12:04:22.658Z,3.80
2019-03-16T12:06:50.458Z,3.80
2019-03-16T12:09:18.335Z,4.00
2019-03-16T12:11:46.134Z,3.90
2019-03-16T12:14:13.914Z,4.00
2019-03-16T12:16:41.722Z,4.10
2019-03-16T12:19:09.498Z,4.10
2019-03-16T12:21:37.304Z,4.00
2019-03-16T12:24:05.175Z,4.20
2019-03-16T12:26:33.007Z,4.30
2019-03-16T12:29:00.795Z,4.30
2019-03-16T12:31:28.636Z,4.30
2019-03-16T12:33:56.644Z,4.40
2019-03-16T12:36:24.543Z,4.20
2019-03-16T12:38:52.326Z,4.30
2019-03-16T12:41:20.132Z,4.20
2019-03-16T12:43:48.037Z,4.00
2019-03-16T12:46:15.866Z,4.20
2019-03-16T12:48:44.695Z,4.20
2019-03-16T12:51:12.531Z,4.30
2019-03-16T12:53:40.330Z,4.40
2019-03-16T12:56:08.222Z,4.60
2019-03-16T12:58:36.117Z,4.70
2019-03-16T13:01:04.019Z,4.80
2019-03-16T13:03:31.835Z,5.00
2019-03-16T13:05:59.633Z,5.10
2019-03-16T13:08:27.521Z,5.10
2019-03-16T13:10:55.322Z,5.20
2019-03-16T13:13:23.085Z,5.20
2019-03-16T13:15:50.922Z,5.10
2019-03-16T13:18:18.887Z,5.20
2019-03-16T13:20:46.681Z,5.30
2019-03-16T13:23:14.484Z,5.20
2019-03-16T13:25:42.332Z,5.10
2019-03-16T13:28:10.179Z,5.00
2019-03-16T13:30:38.054Z,5.10
2019-03-16T13:33:05.853Z,5.10
2019-03-16T13:35:33.672Z,5.00
2019-03-16T13:38:01.554Z,5.10
2019-03-16T13:40:29.335Z,5.10
2019-03-16T13:42:57.149Z,5.20
2019-03-16T13:45:25.026Z,5.20
2019-03-16T13:47:52.872Z,5.10
2019-03-16T13:50:20.733Z,5.20
2019-03-16T13:52:48.802Z,5.20
2019-03-16T13:55:16.569Z,5.20
2019-03-16T13:57:44.387Z,5.20
2019-03-16T14:00:13.175Z,5.10
2019-03-16T14:02:41.036Z,5.20
2019-03-16T14:05:08.842Z,5.30
2019-03-16T14:07:36.929Z,5.20
2019-03-16T14:10:06.317Z,5.30
2019-03-16T14:12:34.098Z,5.30
2019-03-16T14:15:01.917Z,5.30
2019-03-16T14:17:29.976Z,5.60
2019-03-16T14:19:57.786Z,5.30
2019-03-16T14:22:25.563Z,5.30
2019-03-16T14:24:53.506Z,5.30
2019-03-16T14:27:21.327Z,5.10
2019-03-16T14:29:49.128Z,5.10
2019-03-16T14:32:16.939Z,5.20
2019-03-16T14:34:45.081Z,5.10
2019-03-16T14:37:12.880Z,5.10
2019-03-16T14:39:40.835Z,5.10
2019-03-16T14:42:08.984Z,5.10
2019-03-16T14:44:36.764Z,5.20
2019-03-16T14:47:04.584Z,5.20
2019-03-16T14:49:32.425Z,5.20
2019-03-16T14:52:00.215Z,5.20
2019-03-16T14:54:28.066Z,5.20
2019-03-16T14:56:55.916Z,5.20
2019-03-16T14:59:23.678Z,5.20
2019-03-16T15:01:51.549Z,5.20
2019-03-16T15:04:19.378Z,5.30
2019-03-16T15:06:47.183Z,5.40
2019-03-16T15:09:15.072Z,5.30
2019-03-16T15:11:42.866Z,5.30
2019-03-16T15:14:21.099Z,5.10
2019-03-16T15:16:40.324Z,5.10
2019-03-16T15:19:08.125Z,5.20
2019-03-16T15:21:35.933Z,5.30
2019-03-16T15:24:03.733Z,5.30
2019-03-16T15:26:31.595Z,5.30
2019-03-16T15:28:59.571Z,5.30
2019-03-16T15:31:27.364Z,5.30
2019-03-16T15:33:55.169Z,5.30
2019-03-16T15:36:23.034Z,5.30
2019-03-16T15:38:50.823Z,5.30
2019-03-16T15:41:18.626Z,5.30
2019-03-16T15:43:46.533Z,5.30
2019-03-16T15:46:14.331Z,5.30
2019-03-16T15:48:42.134Z,5.20
2019-03-16T15:51:09.982Z,5.20
2019-03-16T15:53:37.790Z,5.20
2019-03-16T15:56:05.597Z,5.20
2019-03-16T15:58:33.410Z,5.20
2019-03-16T16:01:03.953Z,5.10
2019-03-16T16:03:30.869Z,5.00
2019-03-16T16:05:58.752Z,5.00
2019-03-16T16:08:26.547Z,5.00
2019-03-16T16:11:00.935Z,5.00
2019-03-16T16:13:23.999Z,5.00
2019-03-16T16:15:51.827Z,5.00
2019-03-16T16:18:21.376Z,5.00
2019-03-16T16:20:49.240Z,5.00
2019-03-16T16:23:17.101Z,5.00
2019-03-16T16:25:44.904Z,5.00
2019-03-16T16:28:12.784Z,4.90
2019-03-16T16:30:40.635Z,4.80
2019-03-16T16:33:08.418Z,4.80
2019-03-16T16:35:36.215Z,4.90
2019-03-16T16:38:04.044Z,4.90
2019-03-16T16:40:31.850Z,4.90
2019-03-16T16:42:59.731Z,4.90
2019-03-16T16:45:27.551Z,4.70
2019-03-16T16:47:55.375Z,4.70
2019-03-16T16:50:23.199Z,4.60
2019-03-16T16:52:51.031Z,4.50
2019-03-16T16:55:19.011Z,4.50
2019-03-16T16:57:46.823Z,4.50
2019-03-16T17:00:15.270Z,4.40
2019-03-16T17:02:43.127Z,4.40
2019-03-16T17:05:11.025Z,4.20
2019-03-16T17:07:39.016Z,4.20
2019-03-16T17:10:08.117Z,4.30
2019-03-16T17:12:35.956Z,4.30
2019-03-16T17:15:04.459Z,4.30
2019-03-16T17:17:35.530Z,4.30
2019-03-16T17:20:01.846Z,4.30
2019-03-16T17:22:29.663Z,4.30
2019-03-16T17:24:57.456Z,4.30
2019-03-16T17:27:25.328Z,4.20
2019-03-16T17:29:53.190Z,4.20
2019-03-16T17:32:21.007Z,4.20
2019-03-16T17:34:48.948Z,4.20
2019-03-16T17:37:16.748Z,4.20
2019-03-16T17:39:45.005Z,4.20
2019-03-16T17:42:12.927Z,4.20
2019-03-16T17:44:40.725Z,4.20
2019-03-16T17:47:08.506Z,4.20
2019-03-16T17:49:36.338Z,4.30
2019-03-16T17:52:04.137Z,4.30
2019-03-16T17:54:31.989Z,4.30
2019-03-16T17:56:59.763Z,4.30
2019-03-16T17:59:27.572Z,4.30
2019-03-16T18:01:55.437Z,4.30
2019-03-16T18:04:23.315Z,4.20
2019-03-16T18:06:51.195Z,4.20
2019-03-16T18:09:19.010Z,4.10
2019-03-16T18:11:46.823Z,4.00
2019-03-16T18:14:14.715Z,3.90
2019-03-16T18:16:42.509Z,4.00
2019-03-16T18:19:10.301Z,4.00
2019-03-16T18:21:38.173Z,4.00
2019-03-16T18:24:05.975Z,4.00
2019-03-16T18:26:33.750Z,4.00
2019-03-16T18:29:01.617Z,4.00
2019-03-16T18:31:29.514Z,4.00
2019-03-16T18:33:57.339Z,4.00
2019-03-16T18:36:25.222Z,3.90
2019-03-16T18:38:53.041Z,3.90
2019-03-16T18:41:20.845Z,3.80
2019-03-16T18:43:48.678Z,3.60
2019-03-16T18:46:16.512Z,3.60
2019-03-16T18:48:44.388Z,3.60
2019-03-16T18:51:12.174Z,3.60
2019-03-16T18:53:39.964Z,3.70
2019-03-16T18:56:07.977Z,3.70
2019-03-16T18:58:37.675Z,3.70
2019-03-16T19:01:05.402Z,3.70
2019-03-16T19:03:33.281Z,3.60
2019-03-16T19:06:01.074Z,3.50
2019-03-16T19:08:28.886Z,3.50
2019-03-16T19:10:56.721Z,3.50
2019-03-16T19:13:24.518Z,3.50
2019-03-16T19:15:52.433Z,3.40
2019-03-16T19:18:20.230Z,3.50
2019-03-16T19:20:48.024Z,3.50
2019-03-16T19:23:15.927Z,3.40
2019-03-16T19:25:43.736Z,3.40
2019-03-16T19:28:11.538Z,3.40
2019-03-16T19:30:39.334Z,3.40
2019-03-16T19:33:07.167Z,3.40
2019-03-16T19:35:34.974Z,3.30
2019-03-16T19:38:02.863Z,3.30
2019-03-16T19:40:30.668Z,3.30
2019-03-16T19:42:58.476Z,3.30
2019-03-16T19:45:26.356Z,3.20
2019-03-16T19:47:54.160Z,3.30
2019-03-16T19:50:21.965Z,3.30
2019-03-16T19:52:49.835Z,3.30
2019-03-16T19:55:17.689Z,3.40
2019-03-16T19:57:45.461Z,3.40
2019-03-16T20:00:13.639Z,3.50
2019-03-16T20:02:47.204Z,3.40
2019-03-16T20:05:12.277Z,3.40
2019-03-16T20:07:40.117Z,3.40
2019-03-16T20:10:09.257Z,3.40
2019-03-16T20:12:37.107Z,3.40
2019-03-16T20:15:05.393Z,3.30
2019-03-16T20:17:33.178Z,3.30
2019-03-16T20:20:01.105Z,3.30
2019-03-16T20:22:28.927Z,3.30
2019-03-16T20:24:56.777Z,3.40
2019-03-16T20:27:24.606Z,3.40
2019-03-16T20:29:52.409Z,3.40
2019-03-16T20:32:20.434Z,3.40
2019-03-16T20:34:48.234Z,3.30
2019-03-16T20:37:16.139Z,3.30
2019-03-16T20:39:44.008Z,3.20
2019-03-16T20:42:11.879Z,3.20
2019-03-16T20:44:39.816Z,3.10
2019-03-16T20:47:07.644Z,3.10
2019-03-16T20:49:35.585Z,3.10
2019-03-16T20:52:03.420Z,3.10
2019-03-16T20:54:31.253Z,3.10
2019-03-16T20:56:59.290Z,3.20
2019-03-16T20:59:27.242Z,3.20
2019-03-16T21:01:55.082Z,3.20
2019-03-16T21:04:22.967Z,3.20
2019-03-16T21:06:50.770Z,3.20
2019-03-16T21:09:18.573Z,3.20
2019-03-16T21:11:49.290Z,3.20
2019-03-16T21:14:16.323Z,3.30
2019-03-16T21:16:44.131Z,3.20
2019-03-16T21:19:12.046Z,3.20
2019-03-16T21:21:39.937Z,3.20
2019-03-16T21:24:07.700Z,3.20
2019-03-16T21:26:35.546Z,3.20
2019-03-16T21:29:03.489Z,3.10
2019-03-16T21:31:31.412Z,3.10
2019-03-16T21:33:59.487Z,3.10
2019-03-16T21:36:27.305Z,3.00
2019-03-16T21:38:55.140Z,2.90
2019-03-16T21:41:23.061Z,3.00
2019-03-16T21:43:50.847Z,3.00
2019-03-16T21:46:38.098Z,3.00
2019-03-16T21:49:05.942Z,3.00
2019-03-16T21:51:33.864Z,2.90
2019-03-16T21:54:01.758Z,2.80
2019-03-16T21:56:29.598Z,2.80
2019-03-16T21:58:57.580Z,2.60
2019-03-16T22:01:25.480Z,2.60
2019-03-16T22:03:53.259Z,2.60
2019-03-16T22:06:21.057Z,2.60
2019-03-16T22:08:48.961Z,2.70
2019-03-16T22:11:16.754Z,2.60
2019-03-16T22:13:44.546Z,2.50
2019-03-16T22:16:12.418Z,2.50
2019-03-16T22:18:40.237Z,2.50
2019-03-16T22:21:08.063Z,2.60
2019-03-16T22:23:35.923Z,2.50
2019-03-16T22:26:03.797Z,2.40
2019-03-16T22:28:31.715Z,2.50
2019-03-16T22:30:59.807Z,2.50
2019-03-16T22:33:27.794Z,2.40
2019-03-16T22:35:55.636Z,2.40
2019-03-16T22:38:23.442Z,2.50
2019-03-16T22:40:51.507Z,2.50
2019-03-16T22:43:19.300Z,2.60
2019-03-16T22:45:47.155Z,2.60
2019-03-16T22:48:15.056Z,2.60
2019-03-16T22:50:42.844Z,2.60
2019-03-16T22:53:10.704Z,2.50
2019-03-16T22:55:38.511Z,2.60
2019-03-16T22:58:06.286Z,2.60
2019-03-16T23:00:46.808Z,2.50
2019-03-16T23:03:14.863Z,2.40
2019-03-16T23:05:42.702Z,2.40
2019-03-16T23:08:10.515Z,2.40
2019-03-16T23:10:38.304Z,2.40
2019-03-16T23:13:06.206Z,2.50
2019-03-16T23:15:34.005Z,2.50
2019-03-16T23:18:01.831Z,2.60
2019-03-16T23:20:29.759Z,2.60
2019-03-16T23:22:57.661Z,2.60
2019-03-16T23:25:25.455Z,2.50
2019-03-16T23:27:53.290Z,2.50
2019-03-16T23:30:21.082Z,2.50
2019-03-16T23:32:49.050Z,2.50
2019-03-16T23:35:16.860Z,2.60
2019-03-16T23:37:44.681Z,2.70
2019-03-16T23:40:12.702Z,2.80
2019-03-16T23:42:40.501Z,2.80
2019-03-16T23:45:08.878Z,2.90
2019-03-16T23:47:36.709Z,2.90
2019-03-16T23:50:05.154Z,3.00
2019-03-16T23:52:33.002Z,3.00
2019-03-16T23:55:00.866Z,3.00
2019-03-16T23:57:28.688Z,3.00
2019-03-16T23:59:56.456Z,2.90
